Time;durP1;ratioP1;P1;durP2;ratioP2;P2;SDS_P1;SDS_P2;PMS_P1;PMS_P2;Temp;Humidity;BMP_temperature;BMP_pressure;BME280_temperature;BME280_humidity;BME280_pressure;Samples;Min_cycle;Max_cycle;Signal;HPM_P1;HPM_P2
2023/10/29 00:00:07;;;;;;;4.63;1.50;;;;;;;11.67;57.85;99021.75;4972289;28;20697;-74
2023/10/29 00:02:36;;;;;;;3.53;1.33;;;;;;;11.66;57.71;99025.50;4990492;28;20053;-75
2023/10/29 00:05:05;;;;;;;2.80;1.30;;;;;;;11.69;58.02;99024.31;4977855;28;20149;-74
2023/10/29 00:07:33;;;;;;;3.78;1.30;;;;;;;11.69;57.98;99021.56;4981017;28;20057;-74
2023/10/29 00:10:01;;;;;;;2.83;1.33;;;;;;;11.69;57.78;99016.06;4980302;28;20081;-75
2023/10/29 00:12:30;;;;;;;2.33;1.20;;;;;;;11.72;58.08;99023.91;4974375;28;20591;-75
2023/10/29 00:14:59;;;;;;;2.28;1.40;;;;;;;11.73;57.55;99014.66;4992113;28;20128;-75
2023/10/29 00:17:27;;;;;;;2.97;1.25;;;;;;;11.72;57.57;99012.94;4974106;28;20061;-75
2023/10/29 00:19:55;;;;;;;2.03;1.20;;;;;;;11.73;57.83;99026.47;4981188;28;20477;-74
2023/10/29 00:22:23;;;;;;;2.05;1.02;;;;;;;11.75;57.67;99031.75;4991217;28;20080;-74
2023/10/29 00:24:51;;;;;;;4.28;1.50;;;;;;;11.77;57.79;99031.59;4983486;28;20148;-74
2023/10/29 00:27:19;;;;;;;3.85;1.60;;;;;;;11.78;57.48;99036.03;4971974;28;20049;-75
2023/10/29 00:29:48;;;;;;;2.17;1.40;;;;;;;11.81;58.04;99043.88;4986271;28;20099;-75
2023/10/29 00:32:18;;;;;;;4.70;1.40;;;;;;;11.81;57.63;99035.63;4989725;28;20090;-74
2023/10/29 00:34:47;;;;;;;3.13;1.25;;;;;;;11.84;57.71;99027.06;4991821;28;20050;-74
2023/10/29 00:37:17;;;;;;;3.28;1.15;;;;;;;11.85;58.06;99026.88;4985590;28;20510;-74
2023/10/29 00:39:45;;;;;;;3.45;1.20;;;;;;;11.87;57.64;99022.06;4975173;28;20042;-74
2023/10/29 00:42:13;;;;;;;2.42;1.23;;;;;;;11.90;58.14;99020.81;4991646;28;20133;-74
2023/10/29 00:44:41;;;;;;;1.77;0.98;;;;;;;11.90;58.15;99016.19;4973154;28;20038;-74
2023/10/29 00:47:11;;;;;;;1.92;1.23;;;;;;;11.94;58.13;99028.50;4970680;28;20126;-74
2023/10/29 00:49:39;;;;;;;1.70;1.05;;;;;;;11.95;57.95;99032.09;4969319;28;20057;-74
2023/10/29 00:52:07;;;;;;;3.20;1.40;;;;;;;11.96;57.52;99029.16;4977297;28;20054;-75
2023/10/29 00:54:35;;;;;;;2.10;1.30;;;;;;;11.99;57.96;99023.28;4993676;28;20527;-74
2023/10/29 00:57:04;;;;;;;2.40;1.15;;;;;;;12.00;57.93;99021.41;4992570;28;20625;-74
2023/10/29 00:59:32;;;;;;;5.38;1.38;;;;;;;12.02;57.92;99027.56;4970673;28;20046;-73
2023/10/29 01:02:00;;;;;;;2.95;1.23;;;;;;;12.03;57.52;99013.66;4973441;28;20050;-74
2023/10/29 01:04:29;;;;;;;2.35;1.05;;;;;;;12.05;57.37;99000.59;4987892;28;20261;-74
2023/10/29 01:06:59;;;;;;;3.10;1.38;;;;;;;12.06;57.74;98988.59;4969306;28;20673;-73
2023/10/29 01:09:27;;;;;;;2.70;1.27;;;;;;;12.07;57.37;98983.97;4968490;28;20046;-73
2023/10/29 01:11:55;;;;;;;2.33;1.10;;;;;;;12.08;57.88;98983.78;4973882;28;20055;-73
2023/10/29 01:14:24;;;;;;;2.00;1.10;;;;;;;12.09;57.67;98985.47;4971647;28;20108;-73
2023/10/29 01:16:52;;;;;;;2.28;1.20;;;;;;;12.11;57.16;98979.81;4970216;28;20140;-73
2023/10/29 01:19:20;;;;;;;2.03;1.00;;;;;;;12.12;57.50;98989.75;4973240;28;20443;-73
2023/10/29 01:21:50;;;;;;;3.20;1.15;;;;;;;12.13;57.18;98985.94;4973039;28;20078;-73
2023/10/29 01:24:17;;;;;;;3.75;1.50;;;;;;;12.13;57.59;98993.34;4974074;28;20165;-73
2023/10/29 01:26:45;;;;;;;2.13;1.10;;;;;;;12.14;57.55;98987.63;4972332;28;20058;-74
2023/10/29 01:29:13;;;;;;;2.63;1.30;;;;;;;12.15;57.06;98974.78;4972297;28;20054;-73
2023/10/29 01:31:41;;;;;;;2.92;1.40;;;;;;;12.16;57.16;98981.97;4973570;28;20622;-73
2023/10/29 01:34:09;;;;;;;1.75;1.10;;;;;;;12.16;57.60;98985.56;4969856;28;20189;-73
2023/10/29 01:36:37;;;;;;;3.13;1.25;;;;;;;12.18;57.35;98985.38;4973941;28;20068;-73
2023/10/29 01:39:07;;;;;;;3.67;1.20;;;;;;;12.19;57.15;98987.94;4970863;28;20651;-74
2023/10/29 01:41:35;;;;;;;3.58;1.20;;;;;;;12.19;57.48;98979.72;4977195;28;20110;-73
2023/10/29 01:44:03;;;;;;;2.20;1.23;;;;;;;12.20;57.00;98984.16;4971903;28;20050;-74
2023/10/29 01:46:31;;;;;;;2.55;1.10;;;;;;;12.22;57.00;98984.78;4968173;28;20585;-74
2023/10/29 01:48:59;;;;;;;4.03;1.40;;;;;;;12.23;56.99;98989.25;4966046;28;20062;-74
2023/10/29 01:51:27;;;;;;;1.92;1.13;;;;;;;12.23;57.43;98978.28;4968316;28;20070;-74
2023/10/29 01:53:55;;;;;;;3.17;1.30;;;;;;;12.23;57.47;98970.03;4966840;28;20070;-74
2023/10/29 01:56:24;;;;;;;1.92;1.10;;;;;;;12.26;57.24;98952.38;4967910;28;20137;-74
2023/10/29 01:58:52;;;;;;;3.03;1.30;;;;;;;12.25;57.51;98953.41;4973965;28;20145;-74
2023/10/29 02:01:20;;;;;;;3.08;1.30;;;;;;;12.25;56.91;98931.47;4963516;28;20074;-75
2023/10/29 02:03:48;;;;;;;6.75;1.30;;;;;;;12.24;57.39;98921.53;4967312;28;20061;-75
2023/10/29 02:06:18;;;;;;;3.08;1.30;;;;;;;12.26;57.38;98922.19;4966470;28;20050;-75
2023/10/29 02:08:46;;;;;;;2.22;1.17;;;;;;;12.25;57.33;98931.47;4986132;28;20049;-76
2023/10/29 02:11:15;;;;;;;2.35;1.20;;;;;;;12.25;56.96;98929.56;4982795;28;20056;-76
2023/10/29 02:13:47;;;;;;;1.65;1.05;;;;;;;12.26;57.33;98938.66;4982634;28;20140;-76
2023/10/29 02:16:15;;;;;;;2.47;1.17;;;;;;;12.24;56.93;98919.63;4972862;28;20046;-76
2023/10/29 02:18:43;;;;;;;2.50;1.23;;;;;;;12.25;57.37;98909.53;4978527;28;20619;-76
2023/10/29 02:21:11;;;;;;;2.58;1.15;;;;;;;12.24;57.30;98914.16;4963220;28;20130;-76
2023/10/29 02:23:40;;;;;;;2.53;1.05;;;;;;;12.26;57.21;98916.72;4963435;28;20050;-76
2023/10/29 02:26:08;;;;;;;1.55;1.00;;;;;;;12.24;57.05;98896.84;4966007;28;20172;-76
2023/10/29 02:28:36;;;;;;;3.40;1.38;;;;;;;12.24;57.40;98907.81;4962016;28;20054;-76
2023/10/29 02:31:04;;;;;;;2.58;1.20;;;;;;;12.24;57.42;98903.19;4965911;28;20047;-75
2023/10/29 02:33:32;;;;;;;2.83;1.27;;;;;;;12.24;56.95;98900.44;4966944;28;20576;-75
2023/10/29 02:36:00;;;;;;;2.15;1.20;;;;;;;12.24;56.96;98910.56;4983480;28;20155;-75
2023/10/29 02:38:28;;;;;;;2.13;1.10;;;;;;;12.24;57.33;98916.03;4965790;28;20734;-75
2023/10/29 02:40:58;;;;;;;1.60;1.00;;;;;;;12.25;57.50;98904.88;4977815;28;20057;-75
2023/10/29 02:43:26;;;;;;;2.97;1.23;;;;;;;12.24;57.40;98891.38;4976057;28;20625;-75
2023/10/29 02:45:54;;;;;;;2.65;1.00;;;;;;;12.23;57.55;98896.00;4962435;28;20524;-76
2023/10/29 02:48:24;;;;;;;3.05;1.00;;;;;;;12.25;57.42;98890.31;4960713;28;20506;-75
2023/10/29 02:50:53;;;;;;;2.58;1.10;;;;;;;12.26;57.16;98886.53;4966004;28;20051;-75
2023/10/29 02:53:22;;;;;;;2.15;1.00;;;;;;;12.25;57.00;98912.25;4966375;28;20129;-75
2023/10/29 02:55:50;;;;;;;2.75;0.80;;;;;;;12.27;57.31;98891.84;4977136;28;20093;-75
2023/10/29 02:58:20;;;;;;;1.98;0.80;;;;;;;12.29;57.49;98906.22;4978275;28;20453;-74
2023/10/29 03:00:52;;;;;;;1.38;0.90;;;;;;;12.28;57.29;98896.28;4978536;28;21031;-74
2023/10/29 03:03:20;;;;;;;1.55;0.90;;;;;;;12.31;56.97;98903.25;4965892;28;20038;-74
2023/10/29 03:05:49;;;;;;;1.55;0.80;;;;;;;12.32;57.40;98903.06;4983868;28;20085;-74
2023/10/29 03:08:24;;;;;;;2.15;1.10;;;;;;;12.34;57.10;98886.41;4985953;28;20057;-73
2023/10/29 03:10:52;;;;;;;1.90;0.95;;;;;;;12.36;57.35;98878.84;4988147;28;20088;-73
2023/10/29 03:13:21;;;;;;;1.88;0.98;;;;;;;12.37;56.69;98881.41;4986386;28;20049;-73
2023/10/29 03:15:49;;;;;;;1.75;0.90;;;;;;;12.38;56.67;98863.88;4985656;28;20137;-73
2023/10/29 03:18:17;;;;;;;1.65;0.90;;;;;;;12.40;56.70;98860.94;4983862;28;20502;-74
2023/10/29 03:20:45;;;;;;;1.67;0.80;;;;;;;12.41;57.21;98860.75;4969624;28;20116;-73
2023/10/29 03:23:13;;;;;;;2.80;1.10;;;;;;;12.42;56.45;98864.34;4969682;28;20078;-73
2023/10/29 03:25:44;;;;;;;1.73;0.80;;;;;;;12.43;56.48;98855.94;4969340;28;20125;-73
2023/10/29 03:28:12;;;;;;;2.00;0.80;;;;;;;12.44;57.07;98871.34;4971245;28;20052;-73
2023/10/29 03:30:41;;;;;;;1.67;0.93;;;;;;;12.47;56.45;98868.19;4969985;28;20100;-73
2023/10/29 03:33:09;;;;;;;2.03;0.93;;;;;;;12.47;56.83;98850.88;4968193;28;20551;-73
2023/10/29 03:35:38;;;;;;;1.83;0.90;;;;;;;12.47;56.47;98851.75;4988912;28;20042;-73
2023/10/29 03:38:07;;;;;;;2.65;1.00;;;;;;;12.48;56.58;98853.44;4988685;28;20046;-73
2023/10/29 03:40:36;;;;;;;2.28;1.10;;;;;;;12.49;57.03;98844.16;4982968;28;20043;-73
2023/10/29 03:43:04;;;;;;;1.98;1.20;;;;;;;12.50;56.65;98856.00;4976211;28;20053;-73
2023/10/29 03:45:32;;;;;;;1.98;0.90;;;;;;;12.50;56.66;98834.91;4987637;28;20049;-74
2023/10/29 03:48:02;;;;;;;1.65;0.95;;;;;;;12.53;56.84;98846.53;4969308;28;20532;-73
2023/10/29 03:50:30;;;;;;;2.25;0.93;;;;;;;12.52;56.52;98859.41;4968642;28;20043;-73
2023/10/29 03:52:58;;;;;;;1.85;1.00;;;;;;;12.52;56.96;98859.41;4986273;28;20042;-73
2023/10/29 03:55:26;;;;;;;1.42;0.75;;;;;;;12.55;56.82;98878.19;4990018;28;20054;-73
2023/10/29 03:57:54;;;;;;;4.80;1.10;;;;;;;12.54;56.41;98871.03;4985666;28;20133;-73
2023/10/29 04:00:23;;;;;;;2.15;1.25;;;;;;;12.57;56.75;98861.53;4972951;28;20506;-74
2023/10/29 04:02:51;;;;;;;3.35;0.80;;;;;;;12.58;56.50;98871.47;4975910;28;20047;-73
2023/10/29 04:05:21;;;;;;;2.30;0.90;;;;;;;12.60;56.37;98859.28;4989448;28;20066;-72
2023/10/29 04:07:49;;;;;;;1.50;1.00;;;;;;;12.61;56.77;98860.13;4997200;28;20914;-73
2023/10/29 04:10:17;;;;;;;1.75;0.80;;;;;;;12.61;56.50;98846.41;4996536;28;20129;-73
2023/10/29 04:12:45;;;;;;;1.30;0.77;;;;;;;12.62;56.78;98835.28;4994527;28;20687;-73
2023/10/29 04:15:13;;;;;;;2.05;0.88;;;;;;;12.63;56.82;98845.16;4993326;28;20140;-73
2023/10/29 04:17:41;;;;;;;3.38;0.80;;;;;;;12.64;56.74;98848.78;4996589;28;20133;-72
2023/10/29 04:20:10;;;;;;;2.33;0.90;;;;;;;12.67;56.68;98864.84;4994182;28;20054;-73
2023/10/29 04:22:39;;;;;;;1.58;0.90;;;;;;;12.69;56.63;98863.63;4985712;28;20056;-73
2023/10/29 04:25:07;;;;;;;2.03;0.90;;;;;;;12.68;56.67;98863.81;4981720;28;20050;-72
2023/10/29 04:27:35;;;;;;;2.22;1.15;;;;;;;12.68;56.13;98878.38;4994196;28;20494;-73
2023/10/29 04:30:03;;;;;;;1.60;0.77;;;;;;;12.70;56.04;98868.06;4976035;28;20059;-72
2023/10/29 04:32:32;;;;;;;2.05;0.75;;;;;;;12.70;56.48;98892.78;4992909;28;20581;-72
2023/10/29 04:35:00;;;;;;;2.03;0.70;;;;;;;12.71;56.15;98890.84;4983757;28;20062;-73
2023/10/29 04:37:28;;;;;;;1.52;0.70;;;;;;;12.72;56.37;98898.03;4974598;28;20060;-73
2023/10/29 04:39:57;;;;;;;1.88;0.60;;;;;;;12.74;55.83;98874.84;4974562;28;20065;-72
2023/10/29 04:42:25;;;;;;;2.42;0.80;;;;;;;12.73;56.28;98866.81;4976627;28;20132;-72
2023/10/29 04:44:53;;;;;;;1.35;0.68;;;;;;;12.75;56.26;98872.94;4996572;28;20045;-72
2023/10/29 04:47:21;;;;;;;1.70;0.82;;;;;;;12.75;56.35;98873.81;4997584;28;20056;-72
2023/10/29 04:49:49;;;;;;;1.83;0.75;;;;;;;12.76;55.80;98877.41;4984729;28;20054;-73
2023/10/29 04:52:17;;;;;;;2.08;0.82;;;;;;;12.76;55.94;98891.13;4975484;28;20056;-72
2023/10/29 04:54:44;;;;;;;1.00;0.60;;;;;;;12.77;55.92;98892.81;4979052;28;20046;-74
2023/10/29 04:57:14;;;;;;;3.17;0.70;;;;;;;12.78;55.75;98898.13;4997182;28;21027;-72
2023/10/29 04:59:42;;;;;;;0.80;0.60;;;;;;;12.77;56.16;98882.69;4977112;28;20563;-73
2023/10/29 05:02:10;;;;;;;0.73;0.57;;;;;;;12.78;55.64;98878.06;4976058;28;20510;-73
2023/10/29 05:04:38;;;;;;;0.75;0.50;;;;;;;12.78;56.11;98892.63;4978858;28;20133;-72
2023/10/29 05:07:06;;;;;;;1.48;0.70;;;;;;;12.79;56.11;98891.56;4980906;28;20045;-73
2023/10/29 05:09:34;;;;;;;1.52;0.70;;;;;;;12.79;56.05;98890.72;4995212;28;20056;-72
2023/10/29 05:12:02;;;;;;;1.48;0.50;;;;;;;12.79;56.10;98896.19;4997347;28;20048;-72
2023/10/29 05:14:31;;;;;;;0.80;0.50;;;;;;;12.81;55.81;98889.47;4976609;28;20045;-72
2023/10/29 05:16:59;;;;;;;1.27;0.60;;;;;;;12.80;56.00;98896.00;4972304;28;20070;-72
2023/10/29 05:19:27;;;;;;;1.00;0.60;;;;;;;12.81;55.47;98903.22;4985567;28;20148;-72
2023/10/29 05:21:55;;;;;;;1.02;0.60;;;;;;;12.82;55.83;98906.81;4991636;28;20051;-72
2023/10/29 05:24:23;;;;;;;0.95;0.40;;;;;;;12.83;55.38;98917.59;4977914;28;20574;-72
2023/10/29 05:26:51;;;;;;;1.33;0.60;;;;;;;12.83;55.50;98908.50;4996484;28;20485;-73
2023/10/29 05:29:19;;;;;;;0.95;0.60;;;;;;;12.83;55.51;98903.88;4994104;28;20116;-72
2023/10/29 05:31:48;;;;;;;1.42;0.55;;;;;;;12.88;55.29;98911.50;4985087;28;20039;-72
2023/10/29 05:34:16;;;;;;;1.15;0.60;;;;;;;12.86;55.66;98906.22;4974690;28;20134;-73
2023/10/29 05:36:44;;;;;;;1.08;0.60;;;;;;;12.88;55.63;98917.00;4978785;28;20096;-72
2023/10/29 05:39:12;;;;;;;1.25;0.50;;;;;;;12.88;55.43;98917.84;4995596;28;20129;-72
2023/10/29 05:41:39;;;;;;;0.70;0.50;;;;;;;12.89;55.50;98915.94;4998035;28;20053;-72
2023/10/29 05:44:07;;;;;;;1.55;0.60;;;;;;;12.91;55.17;98929.47;4983154;28;20120;-74
2023/10/29 05:46:35;;;;;;;1.35;0.70;;;;;;;12.92;55.45;98925.69;4982872;28;20127;-72
2023/10/29 05:49:05;;;;;;;2.80;0.88;;;;;;;12.94;55.22;98927.22;4994361;28;20058;-73
2023/10/29 05:51:32;;;;;;;1.35;0.70;;;;;;;12.95;54.64;98925.31;4995202;28;20073;-72
2023/10/29 05:54:00;;;;;;;1.52;0.60;;;;;;;12.96;55.05;98924.25;4994754;28;20327;-72
2023/10/29 05:56:28;;;;;;;0.80;0.50;;;;;;;12.96;54.73;98930.59;4996397;28;20038;-72
2023/10/29 05:58:56;;;;;;;0.45;0.40;;;;;;;12.98;55.12;98935.88;4997670;28;20536;-72
2023/10/29 06:01:24;;;;;;;1.20;0.52;;;;;;;12.99;54.56;98930.22;4992943;28;20141;-72
2023/10/29 06:03:52;;;;;;;2.65;0.77;;;;;;;12.99;54.78;98924.72;4991819;28;20038;-72
2023/10/29 06:06:21;;;;;;;2.05;1.05;;;;;;;13.02;54.21;98937.22;4976597;28;20109;-73
2023/10/29 06:08:49;;;;;;;1.38;0.50;;;;;;;13.02;54.79;98939.94;4974175;28;20057;-72
2023/10/29 06:11:17;;;;;;;2.10;0.90;;;;;;;13.02;54.87;98950.94;4974580;28;20054;-72
2023/10/29 06:13:45;;;;;;;1.52;0.60;;;;;;;13.03;54.17;98942.50;4985328;28;20066;-72
2023/10/29 06:16:14;;;;;;;1.55;0.93;;;;;;;13.05;54.03;98950.53;4985459;28;20051;-72
2023/10/29 06:18:41;;;;;;;2.17;0.55;;;;;;;13.05;54.06;98948.63;4976473;28;20062;-72
2023/10/29 06:21:09;;;;;;;1.27;0.50;;;;;;;13.06;54.34;98949.47;4992370;28;21202;-72
2023/10/29 06:23:39;;;;;;;1.83;0.77;;;;;;;13.08;53.86;98955.63;4975382;28;20065;-72
2023/10/29 06:26:08;;;;;;;1.80;0.77;;;;;;;13.08;54.23;98966.63;4986931;28;20145;-72
2023/10/29 06:28:36;;;;;;;1.13;0.70;;;;;;;13.07;53.88;98984.16;4997427;28;20058;-72
2023/10/29 06:31:04;;;;;;;0.95;0.50;;;;;;;13.07;54.02;98978.66;4991218;28;20109;-73
2023/10/29 06:33:32;;;;;;;1.67;0.60;;;;;;;13.08;53.39;98977.59;4995472;28;20417;-72
2023/10/29 06:36:00;;;;;;;1.23;0.50;;;;;;;13.07;53.39;98989.63;4993819;28;20148;-72
2023/10/29 06:38:28;;;;;;;1.90;0.70;;;;;;;13.07;53.89;99006.13;4989978;28;20062;-72
2023/10/29 06:40:57;;;;;;;1.67;0.70;;;;;;;13.10;53.17;99005.72;4990698;28;20121;-72
2023/10/29 06:43:25;;;;;;;1.58;0.55;;;;;;;13.09;53.83;99004.03;4984014;28;20145;-71
2023/10/29 06:45:53;;;;;;;2.38;0.85;;;;;;;13.09;53.34;99013.13;4981699;28;20523;-72
2023/10/29 06:48:22;;;;;;;1.25;0.40;;;;;;;13.10;53.49;99019.47;4995523;28;20134;-73
2023/10/29 06:50:50;;;;;;;2.58;0.80;;;;;;;13.09;53.33;99013.13;4990966;28;20943;-72
2023/10/29 06:53:18;;;;;;;1.45;0.68;;;;;;;13.09;53.66;99020.50;4996425;28;20390;-71
2023/10/29 06:55:46;;;;;;;1.55;0.60;;;;;;;13.09;53.17;99021.34;4997336;28;20062;-72
2023/10/29 06:58:15;;;;;;;2.58;0.60;;;;;;;13.11;53.40;99019.28;4999019;28;20080;-72
2023/10/29 07:00:43;;;;;;;1.25;0.70;;;;;;;13.10;53.55;99022.22;4993348;28;20524;-72
2023/10/29 07:03:11;;;;;;;3.65;1.00;;;;;;;13.09;53.57;99024.09;4994122;28;20607;-72
2023/10/29 07:05:40;;;;;;;2.40;0.60;;;;;;;13.11;53.10;99032.16;4976840;28;20693;-72
2023/10/29 07:08:08;;;;;;;1.45;0.50;;;;;;;13.10;53.22;99038.69;4974557;28;20137;-72
2023/10/29 07:10:36;;;;;;;1.45;0.57;;;;;;;13.10;52.83;99034.06;4974712;28;20637;-72
2023/10/29 07:13:04;;;;;;;2.13;0.77;;;;;;;13.09;53.07;99040.59;4983435;28;20137;-72
2023/10/29 07:15:33;;;;;;;0.98;0.52;;;;;;;13.11;52.82;99059.63;4991616;28;20038;-73
2023/10/29 07:18:01;;;;;;;2.35;0.60;;;;;;;13.09;53.33;99050.72;4993816;28;20113;-72
2023/10/29 07:20:29;;;;;;;2.50;0.70;;;;;;;13.09;52.96;99054.31;4978578;28;20046;-72
2023/10/29 07:22:57;;;;;;;1.08;0.80;;;;;;;13.10;53.03;99064.25;4987268;28;20144;-72
2023/10/29 07:25:25;;;;;;;2.10;0.70;;;;;;;13.09;52.70;99072.69;4986727;28;20129;-72
2023/10/29 07:27:53;;;;;;;3.38;0.70;;;;;;;13.09;53.18;99068.06;4976856;28;20110;-72
2023/10/29 07:30:21;;;;;;;2.45;1.10;;;;;;;13.10;52.57;99068.91;4976072;28;20047;-72
2023/10/29 07:32:50;;;;;;;2.58;0.73;;;;;;;13.10;52.57;99072.50;4993574;28;20102;-71
2023/10/29 07:35:18;;;;;;;1.08;0.60;;;;;;;13.09;52.62;99069.94;5001563;28;20050;-72
2023/10/29 07:37:46;;;;;;;2.30;0.70;;;;;;;13.09;52.57;99064.44;5003218;28;20038;-72
2023/10/29 07:40:16;;;;;;;2.80;1.20;;;;;;;13.10;52.61;99068.91;4999857;28;20075;-72
2023/10/29 07:42:44;;;;;;;2.35;0.70;;;;;;;13.08;52.84;99066.34;4999359;28;20050;-72
2023/10/29 07:45:12;;;;;;;2.78;0.80;;;;;;;13.08;52.63;99069.09;4999926;28;20037;-72
2023/10/29 07:47:40;;;;;;;2.20;0.80;;;;;;;13.07;52.40;99064.63;4978824;28;20565;-72
2023/10/29 07:50:11;;;;;;;2.33;0.68;;;;;;;13.09;52.67;99065.31;4992732;28;20422;-72
2023/10/29 07:52:39;;;;;;;3.08;0.73;;;;;;;13.07;52.34;99078.38;4987782;28;20038;-72
2023/10/29 07:55:08;;;;;;;2.22;0.85;;;;;;;13.07;52.54;99083.88;4976979;28;20071;-72
2023/10/29 07:57:38;;;;;;;1.88;0.50;;;;;;;13.07;52.72;99096.75;4979858;28;20101;-73
2023/10/29 08:00:09;;;;;;;1.77;0.75;;;;;;;13.07;52.38;99137.94;4992574;28;20132;-72
2023/10/29 08:02:40;;;;;;;2.15;0.77;;;;;;;13.04;53.02;99141.06;4998844;28;20038;-73
2023/10/29 08:05:10;;;;;;;1.65;0.77;;;;;;;13.07;52.30;99135.19;4996471;28;20060;-72
2023/10/29 08:07:39;;;;;;;2.08;0.63;;;;;;;13.05;52.64;99137.28;4996283;28;20533;-73
2023/10/29 08:10:08;;;;;;;1.58;0.70;;;;;;;13.05;52.87;99138.13;5018598;23;20038;-72
2023/10/29 08:12:36;;;;;;;2.10;0.65;;;;;;;13.05;52.81;99140.03;5015313;28;20042;-72
2023/10/29 08:15:05;;;;;;;1.58;0.68;;;;;;;13.06;52.83;99130.75;5012399;28;20104;-72
2023/10/29 08:17:33;;;;;;;1.88;0.77;;;;;;;13.06;52.29;99122.50;5006560;28;20044;-72
2023/10/29 08:20:02;;;;;;;1.92;1.10;;;;;;;13.07;52.46;99113.22;4998670;28;20042;-73
2023/10/29 08:22:31;;;;;;;2.08;0.90;;;;;;;13.08;52.65;99107.53;5003797;28;20057;-72
2023/10/29 08:24:59;;;;;;;2.58;0.80;;;;;;;13.07;52.47;99110.47;4999963;28;20050;-72
2023/10/29 08:27:27;;;;;;;2.95;0.80;;;;;;;13.08;52.18;99123.16;4999806;28;20425;-72
2023/10/29 08:29:56;;;;;;;2.33;0.65;;;;;;;13.09;52.57;99125.72;5003915;28;20054;-72
2023/10/29 08:32:24;;;;;;;1.63;0.57;;;;;;;13.09;52.05;99147.69;5008163;28;20054;-71
2023/10/29 08:34:52;;;;;;;1.35;0.60;;;;;;;13.11;52.24;99148.38;5005769;28;20123;-71
2023/10/29 08:37:21;;;;;;;2.38;0.75;;;;;;;13.12;52.68;99146.44;4999730;28;20054;-72
2023/10/29 08:39:50;;;;;;;2.78;0.70;;;;;;;13.15;51.87;99148.81;5005037;28;20612;-73
2023/10/29 08:42:18;;;;;;;1.40;0.50;;;;;;;13.16;52.65;99147.78;4992142;28;20089;-72
2023/10/29 08:44:46;;;;;;;1.80;0.60;;;;;;;13.16;52.14;99142.28;4991482;28;20835;-73
2023/10/29 08:47:14;;;;;;;1.83;0.73;;;;;;;13.19;52.15;99142.75;4994862;28;20068;-73
2023/10/29 08:49:42;;;;;;;3.53;0.75;;;;;;;13.20;52.43;99146.34;5001933;28;20088;-71
2023/10/29 08:52:10;;;;;;;1.83;0.70;;;;;;;13.22;52.41;99152.50;5003774;28;20050;-72
2023/10/29 08:54:38;;;;;;;2.88;0.60;;;;;;;13.23;51.89;99163.28;5002015;28;20133;-71
2023/10/29 08:57:07;;;;;;;1.00;0.68;;;;;;;13.27;52.27;99161.03;5005075;28;20128;-71
2023/10/29 08:59:36;;;;;;;3.45;0.60;;;;;;;13.29;52.16;99169.03;5005351;28;20614;-71
2023/10/29 09:02:04;;;;;;;1.33;0.60;;;;;;;13.29;52.08;99167.16;5006149;28;20595;-72
2023/10/29 09:04:36;;;;;;;2.45;0.85;;;;;;;13.30;51.76;99163.38;5004949;28;20136;-72
2023/10/29 09:07:05;;;;;;;1.73;0.90;;;;;;;13.31;52.25;99166.97;5005582;28;20046;-72
2023/10/29 09:09:33;;;;;;;1.70;0.80;;;;;;;13.33;51.65;99163.00;5005531;28;20056;-71
2023/10/29 09:12:01;;;;;;;0.90;0.47;;;;;;;13.35;51.58;99166.41;5006155;28;20105;-72
2023/10/29 09:14:30;;;;;;;1.45;0.47;;;;;;;13.37;51.43;99172.53;5003636;28;20052;-72
2023/10/29 09:16:59;;;;;;;2.67;0.80;;;;;;;13.36;51.92;99194.72;5006923;28;20050;-71
2023/10/29 09:19:27;;;;;;;2.33;0.80;;;;;;;13.38;51.78;99201.72;5003591;28;20041;-71
2023/10/29 09:21:55;;;;;;;1.35;0.68;;;;;;;13.38;51.57;99204.47;5003091;28;20069;-71
2023/10/29 09:24:23;;;;;;;2.45;0.75;;;;;;;13.40;51.69;99212.53;5005004;28;20099;-72
2023/10/29 09:26:51;;;;;;;2.22;0.77;;;;;;;13.41;52.08;99206.00;5005174;28;20552;-72
2023/10/29 09:29:19;;;;;;;1.73;0.68;;;;;;;13.43;51.93;99203.91;5005369;28;20548;-71
2023/10/29 09:31:50;;;;;;;2.10;0.68;;;;;;;13.45;51.94;99207.28;5005498;28;20060;-72
2023/10/29 09:34:18;;;;;;;0.68;0.38;;;;;;;13.43;51.93;99204.75;5004624;28;20081;-72
2023/10/29 09:36:46;;;;;;;2.28;0.70;;;;;;;13.45;51.53;99196.28;5005223;28;20456;-72
2023/10/29 09:39:14;;;;;;;0.95;0.45;;;;;;;13.46;51.51;99196.09;5005535;28;20058;-72
2023/10/29 09:41:44;;;;;;;1.50;0.70;;;;;;;13.50;51.72;99202.09;4999415;28;20057;-72
2023/10/29 09:44:17;;;;;;;2.85;0.73;;;;;;;13.51;50.88;99190.91;5003184;28;20057;-76
2023/10/29 09:46:46;;;;;;;1.50;0.60;;;;;;;13.50;51.41;99180.94;5001724;28;20046;-73
2023/10/29 09:49:16;;;;;;;1.17;0.50;;;;;;;13.53;51.28;99172.28;5003902;28;20465;-71
2023/10/29 09:51:44;;;;;;;1.33;0.63;;;;;;;13.52;51.29;99170.63;5002554;28;20057;-72
2023/10/29 09:54:13;;;;;;;0.68;0.47;;;;;;;13.55;51.71;99177.59;5008174;28;20117;-72
2023/10/29 09:56:41;;;;;;;1.92;0.60;;;;;;;13.55;51.33;99185.84;5000844;28;20069;-73
2023/10/29 09:59:09;;;;;;;1.50;0.80;;;;;;;13.57;51.66;99175.56;5007243;28;20042;-72
2023/10/29 10:01:37;;;;;;;1.52;0.63;;;;;;;13.60;51.77;99183.41;5008975;28;20117;-72
2023/10/29 10:04:26;;;;;;;1.77;0.68;;;;;;;13.65;52.21;99194.69;5004604;28;20052;-74
2023/10/29 10:06:57;;;;;;;1.70;0.75;;;;;;;13.70;52.46;99197.69;4997233;28;20046;-74
2023/10/29 10:09:25;;;;;;;2.00;0.60;;;;;;;13.76;52.44;99190.56;4998019;28;20064;-74
2023/10/29 10:12:04;;;;;;;1.35;0.65;;;;;;;13.87;51.43;99195.53;4997408;28;20046;-74
2023/10/29 10:14:33;;;;;;;2.42;0.77;;;;;;;13.93;52.00;99187.38;4994972;28;20074;-72
2023/10/29 10:17:11;;;;;;;1.30;0.65;;;;;;;14.04;50.77;99174.97;4995710;28;20472;-70
2023/10/29 10:19:41;;;;;;;3.58;0.98;;;;;;;14.11;51.02;99186.03;4996720;28;20046;-71
2023/10/29 10:22:09;;;;;;;1.30;0.60;;;;;;;14.17;51.32;99177.84;4996407;28;20058;-72
2023/10/29 10:24:39;;;;;;;2.30;0.60;;;;;;;14.25;50.88;99179.59;4996121;28;20133;-72
2023/10/29 10:27:09;;;;;;;2.97;0.60;;;;;;;14.29;50.45;99179.00;4997158;28;20112;-72
2023/10/29 10:29:37;;;;;;;1.42;0.70;;;;;;;14.34;50.21;99176.50;4995877;28;20054;-72
2023/10/29 10:32:08;;;;;;;1.25;0.60;;;;;;;14.41;50.06;99164.69;5001883;28;20452;-73
2023/10/29 10:34:37;;;;;;;1.75;0.73;;;;;;;14.44;50.19;99156.88;4997988;28;20042;-75
2023/10/29 10:37:07;;;;;;;3.40;0.80;;;;;;;14.49;49.84;99165.44;4997037;28;20050;-73
2023/10/29 10:39:35;;;;;;;2.40;0.70;;;;;;;14.52;49.40;99186.22;5013810;28;21158;-72
2023/10/29 10:42:03;;;;;;;2.95;0.73;;;;;;;14.56;49.67;99162.72;4999204;28;20053;-72
2023/10/29 10:44:32;;;;;;;1.33;0.60;;;;;;;14.61;49.54;99168.47;5000290;28;20049;-72
2023/10/29 10:47:03;;;;;;;1.52;0.57;;;;;;;14.67;49.72;99173.19;4998341;28;20056;-72
2023/10/29 10:49:33;;;;;;;2.33;0.75;;;;;;;14.71;49.71;99168.97;4998047;28;21123;-74
2023/10/29 10:52:01;;;;;;;1.98;0.63;;;;;;;14.80;49.45;99166.91;4993973;28;20049;-66
2023/10/29 10:54:30;;;;;;;4.30;0.90;;;;;;;14.88;50.10;99175.84;5004446;28;20085;-69
2023/10/29 10:57:00;;;;;;;3.83;0.80;;;;;;;14.95;49.39;99196.00;5007192;28;20133;-67
2023/10/29 10:59:30;;;;;;;2.17;0.70;;;;;;;15.00;49.12;99177.00;5004153;28;20050;-68
2023/10/29 11:01:58;;;;;;;3.03;0.93;;;;;;;15.04;49.40;99172.75;5007535;28;20608;-65
2023/10/29 11:04:28;;;;;;;3.65;0.70;;;;;;;15.09;49.09;99174.91;5007473;28;20041;-66
2023/10/29 11:06:57;;;;;;;3.80;0.98;;;;;;;15.12;48.52;99180.00;5007071;28;20050;-65
2023/10/29 11:09:25;;;;;;;3.45;0.80;;;;;;;15.15;49.02;99171.34;5002181;28;20160;-67
2023/10/29 11:11:56;;;;;;;1.73;0.93;;;;;;;15.21;47.86;99169.66;5005885;28;20042;-65
2023/10/29 11:14:25;;;;;;;4.32;0.70;;;;;;;15.22;48.27;99169.44;5006882;28;20046;-68
2023/10/29 11:16:55;;;;;;;3.70;0.80;;;;;;;15.27;48.40;99168.81;5007886;28;20120;-67
2023/10/29 11:19:44;;;;;;;3.72;1.20;;;;;;;15.30;47.87;99173.94;5002024;28;20412;-67
2023/10/29 11:22:13;;;;;;;3.35;0.88;;;;;;;15.32;48.41;99166.31;4992415;28;20050;-67
2023/10/29 11:24:42;;;;;;;1.98;0.70;;;;;;;15.36;47.99;99173.97;5007485;28;20069;-67
2023/10/29 11:27:37;;;;;;;1.70;0.80;;;;;;;15.40;46.78;99167.00;5006863;28;20465;-67
2023/10/29 11:30:13;;;;;;;1.60;0.70;;;;;;;15.45;46.88;99188.44;5003943;28;20041;-69
2023/10/29 11:32:42;;;;;;;1.75;0.70;;;;;;;15.47;47.89;99183.56;4996791;28;20050;-75
2023/10/29 11:35:21;;;;;;;1.80;0.60;;;;;;;15.50;46.13;99177.66;4996111;28;20529;-75
2023/10/29 11:37:51;;;;;;;2.15;0.80;;;;;;;15.49;47.56;99175.97;4997754;28;20458;-74
2023/10/29 11:40:36;;;;;;;2.33;0.82;;;;;;;15.49;46.20;99181.47;4986570;28;20135;-73